Time;durP1;ratioP1;P1;durP2;ratioP2;P2;SDS_P1;SDS_P2;PMS_P1;PMS_P2;Temp;Humidity;BMP_temperature;BMP_pressure;BME280_temperature;BME280_humidity;BME280_pressure;Samples;Min_cycle;Max_cycle;Signal;HPM_P1;HPM_P2
2022/07/11 00:17:31;;;;;;;5.18;1.75;;;18.00;99.90;;;;;;6779384;88;20212;-83
2022/07/11 00:27:31;;;;;;;3.47;1.50;;;18.00;99.90;;;;;;6773506;88;20237;-81
2022/07/11 00:37:32;;;;;;;3.78;1.70;;;17.90;99.90;;;;;;6774536;87;20270;-80
2022/07/11 00:47:32;;;;;;;5.07;1.85;;;18.00;99.90;;;;;;6782325;87;20201;-82
2022/07/11 00:57:35;;;;;;;6.05;2.00;;;18.00;99.90;;;;;;6780753;87;20168;-83
2022/07/11 01:07:35;;;;;;;3.90;1.80;;;17.90;99.90;;;;;;6783130;87;20305;-82
2022/07/11 01:17:36;;;;;;;3.62;1.83;;;17.90;99.90;;;;;;6783968;88;20838;-84
2022/07/11 01:27:36;;;;;;;4.35;2.20;;;18.00;99.90;;;;;;6784031;88;20176;-83
2022/07/11 01:37:37;;;;;;;5.68;2.05;;;17.90;99.90;;;;;;6784223;88;20187;-83
2022/07/11 01:47:38;;;;;;;4.87;1.90;;;17.80;99.90;;;;;;6753038;88;20203;-83
2022/07/11 01:57:39;;;;;;;5.10;1.95;;;17.70;99.90;;;;;;6764914;88;20219;-83
2022/07/11 02:17:59;;;;;;;4.85;1.90;;;17.50;99.90;;;;;;6766917;88;20185;-81
2022/07/11 02:27:59;;;;;;;4.30;1.85;;;17.40;99.90;;;;;;6767156;88;21066;-82
2022/07/11 02:38:00;;;;;;;5.93;2.30;;;17.30;99.90;;;;;;6767391;88;20184;-81
2022/07/11 02:48:01;;;;;;;3.85;2.33;;;17.30;99.90;;;;;;6763101;88;20249;-83
2022/07/11 02:58:02;;;;;;;5.65;2.30;;;17.10;99.90;;;;;;6762468;88;20915;-82
2022/07/11 03:08:02;;;;;;;5.95;2.35;;;17.10;99.90;;;;;;6765162;88;20160;-81
2022/07/11 03:18:03;;;;;;;5.50;2.30;;;17.00;99.90;;;;;;6772388;88;20170;-80
2022/07/11 03:28:04;;;;;;;6.90;2.70;;;17.00;99.90;;;;;;6782741;88;20274;-81
2022/07/11 03:38:04;;;;;;;4.22;2.70;;;17.00;99.90;;;;;;6777598;88;20874;-81
2022/07/11 03:48:07;;;;;;;4.25;2.83;;;17.00;99.90;;;;;;6762405;88;20208;-81
2022/07/11 03:58:07;;;;;;;7.43;3.00;;;17.00;99.90;;;;;;6729548;88;20205;-81
2022/07/11 04:08:08;;;;;;;7.82;2.90;;;17.10;99.90;;;;;;6695447;89;20180;-81
2022/07/11 04:18:09;;;;;;;6.22;3.55;;;17.20;99.90;;;;;;6695797;89;20166;-81
2022/07/11 04:28:09;;;;;;;9.23;3.73;;;17.20;99.90;;;;;;6723217;88;20200;-80
2022/07/11 04:38:10;;;;;;;8.25;3.70;;;17.20;99.90;;;;;;6758078;88;20500;-82
2022/07/11 04:48:10;;;;;;;7.53;3.78;;;17.10;99.90;;;;;;6768761;88;20801;-81
2022/07/11 04:58:11;;;;;;;10.57;4.27;;;17.10;99.90;;;;;;6768416;88;20768;-80
2022/07/11 05:08:11;;;;;;;8.60;4.57;;;17.20;99.90;;;;;;6749177;88;20216;-80
2022/07/11 05:18:12;;;;;;;11.18;5.57;;;17.50;99.90;;;;;;6749228;88;20201;-80
2022/07/11 05:28:13;;;;;;;13.68;7.53;;;17.40;99.90;;;;;;6714828;88;20889;-80
2022/07/11 05:38:13;;;;;;;12.43;6.93;;;17.40;99.90;;;;;;6735635;88;20921;-80
2022/07/11 05:48:14;;;;;;;11.98;5.30;;;17.60;99.90;;;;;;6768336;88;20886;-81
2022/07/11 05:58:14;;;;;;;9.75;4.82;;;17.70;99.90;;;;;;6767630;88;20311;-81
2022/07/11 06:08:56;;;;;;;11.48;5.53;;;17.80;99.90;;;;;;6757914;77;20213;-80
2022/07/11 06:18:56;;;;;;;11.52;5.10;;;17.80;99.90;;;;;;6731305;88;20984;-79
2022/07/11 06:28:57;;;;;;;12.45;6.85;;;17.90;99.90;;;;;;6726823;88;20197;-79
2022/07/11 06:38:57;;;;;;;10.15;4.80;;;17.80;99.90;;;;;;6742877;88;20224;-80
2022/07/11 06:48:58;;;;;;;9.35;4.30;;;17.90;99.90;;;;;;6743276;88;20188;-79
2022/07/11 06:58:58;;;;;;;9.10;4.20;;;17.90;99.90;;;;;;6740319;88;20193;-80
2022/07/11 07:08:59;;;;;;;11.45;5.47;;;17.70;99.90;;;;;;6740339;88;20203;-79
2022/07/11 07:18:59;;;;;;;12.27;5.90;;;17.70;99.90;;;;;;6725923;88;20210;-78
2022/07/11 07:29:00;;;;;;;22.48;11.57;;;17.90;99.90;;;;;;6747211;88;20751;-79
2022/07/11 07:39:00;;;;;;;12.80;6.35;;;18.20;99.90;;;;;;6732161;88;20664;-79
2022/07/11 07:49:02;;;;;;;12.25;7.03;;;18.00;99.90;;;;;;6747317;88;20181;-79
2022/07/11 07:59:03;;;;;;;17.60;10.75;;;18.10;99.90;;;;;;6738443;88;20189;-80
2022/07/11 08:09:05;;;;;;;26.87;14.32;;;18.50;99.90;;;;;;6738623;88;20215;-80
2022/07/11 08:19:06;;;;;;;25.40;14.75;;;18.40;99.90;;;;;;6739650;88;20197;-79
2022/07/11 08:29:07;;;;;;;24.12;14.02;;;18.20;99.90;;;;;;6728968;88;20201;-79
2022/07/11 08:39:07;;;;;;;22.50;14.30;;;18.30;99.90;;;;;;6733852;88;20263;-81
2022/07/11 08:49:07;;;;;;;19.58;12.20;;;18.50;99.90;;;;;;6735738;88;20221;-80
2022/07/11 08:59:08;;;;;;;17.40;11.45;;;18.80;99.90;;;;;;6733023;88;20208;-80
2022/07/11 09:09:09;;;;;;;13.50;9.90;;;19.50;99.90;;;;;;6725396;88;21201;-79
2022/07/11 09:19:30;;;;;;;17.50;11.50;;;20.20;99.90;;;;;;6735108;88;20181;-80
2022/07/11 09:29:30;;;;;;;15.02;11.68;;;20.30;99.90;;;;;;6740470;88;20196;-80
2022/07/11 09:39:31;;;;;;;15.15;12.00;;;19.70;99.90;;;;;;6743987;88;20205;-78
2022/07/11 09:49:39;;;;;;;14.05;9.70;;;19.90;99.90;;;;;;6736568;88;20738;-80
2022/07/11 09:59:41;;;;;;;15.70;10.60;;;20.10;99.90;;;;;;6741952;88;20848;-79
2022/07/11 10:09:41;;;;;;;14.93;11.12;;;20.30;99.90;;;;;;6733588;88;20286;-80
2022/07/11 10:20:04;;;;;;;15.70;10.95;;;20.40;99.90;;;;;;6733600;88;20195;-79
2022/07/11 10:30:05;;;;;;;14.98;11.05;;;21.10;99.90;;;;;;6737737;88;20177;-78
2022/07/11 10:40:07;;;;;;;16.12;11.57;;;20.90;99.90;;;;;;6735991;88;20694;-78
2022/07/11 10:50:10;;;;;;;15.25;11.82;;;21.00;99.90;;;;;;6734310;88;20312;-79
2022/07/11 11:00:14;;;;;;;17.10;11.27;;;21.10;99.90;;;;;;6731551;88;20222;-79
2022/07/11 11:10:17;;;;;;;12.13;10.00;;;21.10;99.90;;;;;;6736306;88;20260;-78
2022/07/11 11:20:31;;;;;;;8.63;7.05;;;20.60;99.90;;;;;;6738048;88;20205;-79
2022/07/11 11:30:32;;;;;;;7.47;5.80;;;21.00;99.90;;;;;;6741941;88;20181;-79
2022/07/11 11:40:33;;;;;;;7.25;6.32;;;21.10;99.90;;;;;;6739811;88;20174;-79
2022/07/11 11:50:33;;;;;;;9.52;7.53;;;20.70;99.90;;;;;;6736104;88;20177;-79
2022/07/11 12:00:34;;;;;;;10.63;8.43;;;20.90;99.90;;;;;;6744973;88;20193;-79
2022/07/11 12:21:37;;;;;;;7.90;5.57;;;21.00;99.90;;;;;;6779072;87;20836;-82
2022/07/11 12:31:44;;;;;;;7.20;4.95;;;20.90;99.90;;;;;;6778987;87;20257;-81
2022/07/11 12:41:45;;;;;;;9.32;7.28;;;20.70;99.90;;;;;;6778906;87;20167;-82
2022/07/11 12:51:46;;;;;;;11.30;7.95;;;21.20;99.90;;;;;;6775328;87;20960;-82
2022/07/11 13:02:03;;;;;;;13.02;8.85;;;21.90;99.90;;;;;;6781918;87;20651;-82
2022/07/11 13:12:04;;;;;;;12.43;10.52;;;22.00;99.90;;;;;;6779095;87;20209;-81
2022/07/11 13:22:05;;;;;;;11.70;10.40;;;22.40;99.90;;;;;;6782560;87;20173;-79
2022/07/11 13:32:06;;;;;;;14.48;11.45;;;22.90;99.90;;;;;;6778197;87;20201;-82
2022/07/11 13:42:07;;;;;;;18.15;12.73;;;23.00;99.90;;;;;;6765659;88;20270;-80
2022/07/11 13:52:07;;;;;;;14.80;11.13;;;23.50;99.90;;;;;;6766078;87;20209;-82
2022/07/11 14:02:08;;;;;;;16.67;12.20;;;23.40;99.90;;;;;;6784404;87;20745;-81
2022/07/11 14:12:09;;;;;;;15.95;11.68;;;23.30;99.90;;;;;;6786361;87;20249;-82
2022/07/11 14:22:09;;;;;;;16.73;12.37;;;24.20;99.90;;;;;;6788708;87;20187;-84
2022/07/11 14:32:14;;;;;;;17.48;12.82;;;24.40;99.90;;;;;;6791553;87;20218;-81
2022/07/11 14:42:15;;;;;;;17.15;13.05;;;24.40;99.90;;;;;;6791513;87;20164;-81
2022/07/11 14:52:15;;;;;;;15.32;12.27;;;24.70;99.90;;;;;;6788678;87;20184;-81
2022/07/11 15:02:16;;;;;;;15.05;12.20;;;24.10;99.90;;;;;;6753858;88;20208;-80
2022/07/11 15:12:24;;;;;;;17.48;13.88;;;23.90;99.90;;;;;;6785423;87;20191;-81
2022/07/11 15:22:24;;;;;;;16.25;13.30;;;23.40;99.90;;;;;;6787785;87;20188;-81
2022/07/11 15:32:27;;;;;;;17.27;14.18;;;23.90;99.90;;;;;;6768810;87;20197;-80
2022/07/11 15:42:28;;;;;;;17.30;13.80;;;23.50;99.90;;;;;;6742632;88;20235;-80
2022/07/11 15:52:28;;;;;;;16.58;12.20;;;23.60;99.90;;;;;;6743917;88;20193;-81
2022/07/11 16:02:30;;;;;;;15.25;11.10;;;23.20;99.90;;;;;;6773504;87;20182;-80
2022/07/11 16:12:32;;;;;;;14.85;11.20;;;23.10;99.90;;;;;;6777682;87;20193;-82
2022/07/11 16:22:32;;;;;;;13.55;10.40;;;23.10;99.90;;;;;;6787062;87;20704;-80
2022/07/11 16:32:33;;;;;;;12.55;9.95;;;23.30;99.90;;;;;;6794957;87;20227;-81
2022/07/11 16:52:53;;;;;;;12.88;10.40;;;23.50;99.90;;;;;;6789239;87;20152;-82
2022/07/11 17:02:54;;;;;;;13.85;10.32;;;23.90;99.90;;;;;;6803039;87;20183;-81
2022/07/11 17:12:54;;;;;;;10.80;9.70;;;24.40;99.90;;;;;;6799383;87;20199;-79
2022/07/11 17:22:56;;;;;;;12.63;9.90;;;24.50;99.90;;;;;;6793299;87;20683;-82
2022/07/11 17:32:57;;;;;;;10.95;9.50;;;24.70;99.90;;;;;;6792645;87;20213;-80
2022/07/11 17:42:58;;;;;;;13.00;9.60;;;24.00;99.90;;;;;;6795817;87;20246;-80
2022/07/11 17:52:58;;;;;;;11.15;9.73;;;23.50;99.90;;;;;;6799523;87;20145;-80
2022/07/11 18:02:59;;;;;;;12.80;10.27;;;25.00;99.90;;;;;;6795112;87;20285;-79
2022/07/11 18:12:59;;;;;;;11.18;9.02;;;25.70;99.90;;;;;;6727318;77;20196;-76
2022/07/11 18:23:00;;;;;;;12.00;9.23;;;24.30;99.90;;;;;;6750862;87;20197;-77
2022/07/11 18:33:00;;;;;;;11.63;10.13;;;24.40;99.90;;;;;;6759363;87;20315;-76
2022/07/11 18:43:01;;;;;;;13.07;10.30;;;24.80;99.90;;;;;;6759321;87;20275;-77
2022/07/11 18:53:02;;;;;;;12.23;9.93;;;23.60;99.90;;;;;;6755734;87;20184;-77
2022/07/11 19:03:03;;;;;;;12.55;9.95;;;22.60;99.90;;;;;;6762651;87;20157;-80
2022/07/11 19:13:03;;;;;;;11.55;10.27;;;22.00;99.90;;;;;;6777829;88;20202;-80
2022/07/11 19:23:04;;;;;;;11.48;10.27;;;21.60;99.90;;;;;;6774112;87;20278;-80
2022/07/11 19:33:04;;;;;;;14.82;10.90;;;21.30;99.90;;;;;;6772128;88;20184;-80
2022/07/11 19:43:05;;;;;;;11.93;10.23;;;20.80;99.90;;;;;;6780758;87;20207;-81
2022/07/11 19:53:07;;;;;;;13.60;10.98;;;20.50;99.90;;;;;;6766296;87;20206;-80
2022/07/11 20:03:09;;;;;;;13.62;12.05;;;20.30;99.90;;;;;;6765823;87;20207;-78
2022/07/11 20:13:09;;;;;;;12.93;11.48;;;19.90;99.90;;;;;;6760955;87;21013;-79
2022/07/11 20:23:10;;;;;;;15.07;12.20;;;19.70;99.90;;;;;;6767627;87;20302;-79
2022/07/11 20:33:11;;;;;;;13.68;11.60;;;19.80;99.90;;;;;;6761417;88;20187;-79
2022/07/11 20:43:12;;;;;;;13.27;11.55;;;19.40;99.90;;;;;;6759560;88;20300;-78
2022/07/11 20:53:13;;;;;;;16.15;13.10;;;19.40;99.90;;;;;;6757158;88;20200;-79
2022/07/11 21:03:13;;;;;;;16.00;12.95;;;19.10;99.90;;;;;;6757676;88;20445;-78
2022/07/11 21:13:16;;;;;;;18.50;14.35;;;19.00;99.90;;;;;;6756929;87;20229;-80
2022/07/11 21:23:17;;;;;;;18.20;13.70;;;18.40;99.90;;;;;;6757760;88;20303;-79
2022/07/11 21:33:18;;;;;;;18.40;14.35;;;18.40;99.90;;;;;;6784259;87;20188;-85
2022/07/11 21:43:19;;;;;;;17.85;14.10;;;18.20;99.90;;;;;;6767504;88;20172;-86
2022/07/11 21:53:20;;;;;;;20.05;13.70;;;18.20;99.90;;;;;;6767599;88;20168;-84
2022/07/11 22:03:22;;;;;;;17.23;14.05;;;17.90;99.90;;;;;;6767419;88;20156;-84
2022/07/11 22:13:22;;;;;;;20.65;14.32;;;17.70;99.90;;;;;;6736627;88;21103;-85
2022/07/11 22:23:23;;;;;;;17.58;13.77;;;17.60;99.90;;;;;;6732588;88;20492;-85
2022/07/11 22:43:27;;;;;;;17.75;14.05;;;17.00;99.90;;;;;;6734504;88;20302;-86
2022/07/11 22:53:27;;;;;;;17.55;12.93;;;17.00;99.90;;;;;;6750002;88;20236;-84
2022/07/11 23:03:28;;;;;;;16.80;13.10;;;16.70;99.90;;;;;;6749975;88;20162;-84
2022/07/11 23:13:28;;;;;;;17.33;13.40;;;16.70;99.90;;;;;;6750073;88;20171;-86
2022/07/11 23:23:29;;;;;;;17.60;13.70;;;16.80;99.90;;;;;;6749618;88;20165;-86
2022/07/11 23:33:30;;;;;;;17.10;13.48;;;16.80;99.90;;;;;;6764736;88;20253;-85
2022/07/11 23:43:30;;;;;;;16.77;13.13;;;16.50;99.90;;;;;;6768555;88;20255;-85
2022/07/11 23:53:31;;;;;;;16.37;12.70;;;16.40;99.90;;;;;;6768299;88;20246;-86
